createdAt,value
2024-05-09T00:02:44.044Z,6.70
2024-05-09T00:05:47.365Z,6.90
2024-05-09T00:08:50.597Z,6.53
2024-05-09T00:11:53.863Z,6.30
2024-05-09T00:14:56.999Z,6.60
2024-05-09T00:18:00.367Z,6.80
2024-05-09T00:21:06.394Z,6.27
2024-05-09T00:24:09.628Z,6.70
2024-05-09T00:27:13.482Z,6.57
2024-05-09T00:30:24.356Z,6.63
2024-05-09T00:33:34.810Z,6.83
2024-05-09T00:36:38.053Z,8.63
2024-05-09T00:39:41.125Z,8.75
2024-05-09T00:42:46.379Z,9.88
2024-05-09T00:45:49.602Z,10.45
2024-05-09T00:48:52.926Z,9.83
2024-05-09T00:51:56.030Z,9.90
2024-05-09T00:54:59.112Z,9.57
2024-05-09T00:58:02.708Z,9.90
2024-05-09T01:01:06.388Z,8.70
2024-05-09T01:04:11.430Z,7.60
2024-05-09T01:07:14.660Z,6.87
2024-05-09T01:10:24.221Z,6.60
2024-05-09T01:13:34.996Z,6.22
2024-05-09T01:16:38.079Z,6.45
2024-05-09T01:19:41.226Z,6.13
2024-05-09T01:22:44.391Z,6.07
2024-05-09T01:25:47.611Z,6.13
2024-05-09T01:28:50.746Z,5.55
2024-05-09T01:31:53.989Z,6.03
2024-05-09T01:34:57.189Z,6.17
2024-05-09T01:38:00.354Z,5.33
2024-05-09T01:41:40.938Z,5.50
2024-05-09T01:45:21.041Z,5.03
2024-05-09T01:49:01.452Z,4.97
2024-05-09T01:52:04.915Z,4.40
2024-05-09T01:55:08.157Z,4.27
2024-05-09T01:58:11.390Z,4.13
2024-05-09T02:01:14.524Z,3.90
2024-05-09T02:04:17.906Z,3.38
2024-05-09T02:07:21.231Z,3.43
2024-05-09T02:10:31.716Z,3.20
2024-05-09T02:13:35.978Z,3.53
2024-05-09T02:16:39.143Z,3.60
2024-05-09T02:19:42.187Z,4.25
2024-05-09T02:22:45.412Z,3.50
2024-05-09T02:25:48.599Z,3.00
2024-05-09T02:28:51.839Z,2.67
2024-05-09T02:31:55.018Z,3.42
2024-05-09T02:34:58.185Z,2.80
2024-05-09T02:38:01.417Z,2.73
2024-05-09T02:41:04.933Z,2.90
2024-05-09T02:44:08.113Z,2.50
2024-05-09T02:47:48.918Z,2.63
2024-05-09T02:51:29.364Z,2.70
2024-05-09T02:54:32.537Z,3.23
2024-05-09T02:57:35.598Z,3.20
2024-05-09T03:00:41.499Z,2.97
2024-05-09T03:03:48.435Z,2.72
2024-05-09T03:06:51.613Z,2.58
2024-05-09T03:09:54.677Z,2.67
2024-05-09T03:12:57.750Z,2.53
2024-05-09T03:16:01.068Z,2.88
2024-05-09T03:19:04.337Z,2.85
2024-05-09T03:22:07.498Z,2.30
2024-05-09T03:25:10.761Z,2.53
2024-05-09T03:28:13.875Z,2.30
2024-05-09T03:31:19.084Z,2.28
2024-05-09T03:34:22.217Z,2.30
2024-05-09T03:37:25.364Z,2.20
2024-05-09T03:40:30.884Z,2.43
2024-05-09T03:43:34.414Z,2.70
2024-05-09T03:46:40.708Z,2.05
2024-05-09T03:50:26.456Z,2.33
2024-05-09T03:54:13.830Z,2.00
2024-05-09T03:57:18.816Z,1.90
2024-05-09T04:00:30.927Z,2.30
2024-05-09T04:03:40.539Z,2.50
2024-05-09T04:06:43.752Z,2.10
2024-05-09T04:09:46.804Z,2.40
2024-05-09T04:12:49.854Z,2.03
2024-05-09T04:15:52.930Z,2.20
2024-05-09T04:18:56.124Z,2.22
2024-05-09T04:21:59.244Z,2.15
2024-05-09T04:25:02.348Z,2.40
2024-05-09T04:28:05.817Z,2.30
2024-05-09T04:31:08.964Z,2.47
2024-05-09T04:34:12.119Z,2.30
2024-05-09T04:37:15.280Z,2.40
2024-05-09T04:40:27.679Z,2.20
2024-05-09T04:43:35.418Z,2.20
2024-05-09T04:46:41.120Z,1.90
2024-05-09T04:49:46.663Z,2.47
2024-05-09T04:52:50.876Z,2.22
2024-05-09T04:56:32.070Z,2.30
2024-05-09T04:59:36.475Z,2.20
2024-05-09T05:02:39.761Z,2.10
2024-05-09T05:05:43.930Z,2.22
2024-05-09T05:08:47.975Z,2.35
2024-05-09T05:11:51.525Z,2.40
2024-05-09T05:14:54.662Z,2.30
2024-05-09T05:17:58.047Z,2.20
2024-05-09T05:21:01.328Z,1.88
2024-05-09T05:24:04.616Z,2.13
2024-05-09T05:27:07.693Z,2.45
2024-05-09T05:30:17.581Z,2.30
2024-05-09T05:33:24.397Z,2.20
2024-05-09T05:36:27.925Z,2.28
2024-05-09T05:39:31.120Z,2.17
2024-05-09T05:42:34.213Z,2.05
2024-05-09T05:45:37.570Z,2.27
2024-05-09T05:48:40.867Z,2.27
2024-05-09T05:51:44.140Z,3.33
2024-05-09T05:54:48.668Z,2.25
2024-05-09T05:57:51.732Z,2.08
2024-05-09T06:00:55.049Z,2.00
2024-05-09T06:03:58.362Z,2.60
2024-05-09T06:07:03.088Z,2.00
2024-05-09T06:10:11.448Z,2.03
2024-05-09T06:13:17.456Z,2.30
2024-05-09T06:16:20.626Z,2.27
2024-05-09T06:19:24.071Z,2.27
2024-05-09T06:22:28.297Z,2.13
2024-05-09T06:25:31.562Z,2.40
2024-05-09T06:28:37.930Z,2.20
2024-05-09T06:31:43.079Z,2.40
2024-05-09T06:34:55.527Z,2.47
2024-05-09T06:37:58.754Z,2.30
2024-05-09T06:41:02.085Z,2.08
2024-05-09T06:44:05.546Z,2.45
2024-05-09T06:47:08.988Z,2.40
2024-05-09T06:50:20.254Z,2.10
2024-05-09T06:53:27.542Z,2.45
2024-05-09T06:56:31.551Z,2.10
2024-05-09T06:59:35.337Z,2.15
2024-05-09T07:02:39.056Z,2.37
2024-05-09T07:05:42.644Z,2.30
2024-05-09T07:08:46.987Z,1.92
2024-05-09T07:11:51.335Z,2.00
2024-05-09T07:14:54.728Z,2.13
2024-05-09T07:17:58.219Z,2.50
2024-05-09T07:21:01.695Z,2.20
2024-05-09T07:24:05.167Z,2.20
2024-05-09T07:27:08.260Z,2.10
2024-05-09T07:30:13.596Z,2.15
2024-05-09T07:33:22.618Z,2.10
2024-05-09T07:36:27.243Z,2.10
2024-05-09T07:39:30.393Z,2.42
2024-05-09T07:42:33.791Z,1.98
2024-05-09T07:45:48.504Z,1.80
2024-05-09T07:50:35.389Z,2.23
2024-05-09T07:53:29.662Z,1.70
2024-05-09T07:55:43.094Z,2.00
2024-05-09T07:58:46.453Z,1.77
2024-05-09T08:01:50.053Z,1.70
2024-05-09T08:04:53.647Z,1.90
2024-05-09T08:07:57.045Z,2.00
2024-05-09T08:11:00.147Z,1.77
2024-05-09T08:14:03.216Z,2.10
2024-05-09T08:17:06.975Z,1.80
2024-05-09T08:20:11.387Z,2.00
2024-05-09T08:23:16.337Z,2.10
2024-05-09T08:26:19.458Z,2.10
2024-05-09T08:29:23.127Z,2.40
2024-05-09T08:32:28.053Z,2.47
2024-05-09T08:35:33.107Z,1.90
2024-05-09T08:38:39.364Z,2.07
2024-05-09T08:41:43.075Z,1.92
2024-05-09T08:44:47.526Z,1.92
2024-05-09T08:47:51.266Z,2.15
2024-05-09T08:50:54.600Z,1.77
2024-05-09T08:53:58.962Z,1.77
2024-05-09T08:57:14.324Z,2.13
2024-05-09T09:03:53.616Z,2.00
2024-05-09T09:06:58.395Z,2.20
2024-05-09T09:10:05.653Z,1.83
2024-05-09T09:13:13.978Z,2.10
2024-05-09T09:16:19.790Z,2.05
2024-05-09T09:19:23.981Z,2.20
2024-05-09T09:22:27.181Z,2.00
2024-05-09T09:25:30.266Z,2.20
2024-05-09T09:28:37.431Z,2.08
2024-05-09T09:31:43.558Z,2.47
2024-05-09T09:34:48.396Z,2.10
2024-05-09T09:37:51.875Z,2.30
2024-05-09T09:40:55.151Z,2.33
2024-05-09T09:43:58.346Z,2.58
2024-05-09T09:47:02.489Z,2.67
2024-05-09T09:50:12.048Z,2.50
2024-05-09T09:53:18.705Z,2.20
2024-05-09T09:56:22.179Z,2.20
2024-05-09T09:59:25.486Z,2.10
2024-05-09T10:02:28.807Z,2.22
2024-05-09T10:05:33.426Z,2.30
2024-05-09T10:08:37.117Z,2.27
2024-05-09T10:11:45.388Z,2.70
2024-05-09T10:14:54.189Z,2.95
2024-05-09T10:18:15.981Z,3.08
2024-05-09T10:21:19.979Z,9.43
2024-05-09T10:24:23.547Z,3.40
2024-05-09T10:27:30.128Z,8.53
2024-05-09T10:30:36.416Z,8.82
2024-05-09T10:33:42.045Z,7.45
2024-05-09T10:36:45.515Z,2.72
2024-05-09T10:39:51.374Z,8.00
2024-05-09T10:42:55.103Z,2.83
2024-05-09T10:46:01.238Z,3.35
2024-05-09T10:49:07.272Z,2.80
2024-05-09T10:52:11.203Z,2.90
2024-05-09T10:55:14.507Z,2.87
2024-05-09T10:58:20.235Z,3.00
2024-05-09T11:01:23.979Z,2.63
2024-05-09T11:04:27.545Z,2.90
2024-05-09T11:07:30.794Z,2.70
2024-05-09T11:10:34.654Z,2.90
2024-05-09T11:13:41.234Z,3.30
2024-05-09T11:16:44.383Z,3.63
2024-05-09T11:19:48.047Z,3.20
2024-05-09T11:22:51.281Z,3.20
2024-05-09T11:25:55.948Z,3.45
2024-05-09T11:28:59.202Z,3.00
2024-05-09T11:32:02.550Z,3.22
2024-05-09T11:35:06.059Z,3.33
2024-05-09T11:38:10.824Z,3.40
2024-05-09T11:41:38.948Z,3.50
2024-05-09T11:44:42.265Z,3.20
2024-05-09T11:47:45.539Z,3.50
2024-05-09T11:50:48.820Z,3.22
2024-05-09T11:53:51.901Z,3.60
2024-05-09T11:56:55.102Z,3.60
2024-05-09T11:59:58.254Z,3.40
2024-05-09T12:03:01.414Z,4.20
2024-05-09T12:06:04.965Z,3.67
2024-05-09T12:09:08.175Z,3.92
2024-05-09T12:12:11.670Z,3.40
2024-05-09T12:15:15.056Z,3.73
2024-05-09T12:18:18.459Z,3.83
2024-05-09T12:21:21.747Z,4.00
2024-05-09T12:24:25.408Z,4.20
2024-05-09T12:27:28.492Z,4.15
2024-05-09T12:30:37.495Z,4.30
2024-05-09T12:33:43.111Z,4.32
2024-05-09T12:36:46.275Z,4.27
2024-05-09T12:39:50.600Z,4.50
2024-05-09T12:42:56.728Z,4.20
2024-05-09T12:46:00.215Z,4.57
2024-05-09T12:49:03.666Z,4.50
2024-05-09T12:52:09.713Z,4.43
2024-05-09T12:55:13.385Z,4.50
2024-05-09T12:58:17.717Z,4.40
2024-05-09T13:01:21.151Z,4.40
2024-05-09T13:04:24.478Z,3.67
2024-05-09T13:07:27.699Z,3.97
2024-05-09T13:10:32.889Z,3.83
2024-05-09T13:13:36.774Z,3.45
2024-05-09T13:16:39.949Z,2.77
2024-05-09T13:19:43.232Z,2.17
2024-05-09T13:22:47.881Z,2.22
2024-05-09T13:25:51.182Z,2.10
2024-05-09T13:28:54.258Z,1.90
2024-05-09T13:32:00.479Z,2.00
2024-05-09T13:35:06.819Z,3.88
2024-05-09T13:38:09.982Z,2.20
2024-05-09T13:41:13.077Z,2.13
2024-05-09T13:44:16.265Z,2.40
2024-05-09T13:47:19.666Z,2.30
2024-05-09T13:50:31.150Z,2.28
2024-05-09T13:53:38.455Z,2.30
2024-05-09T13:56:42.034Z,2.13
2024-05-09T13:59:45.208Z,2.10
2024-05-09T14:02:48.385Z,2.05
2024-05-09T14:05:52.238Z,2.00
2024-05-09T14:08:55.640Z,2.10
2024-05-09T14:11:58.846Z,1.48
2024-05-09T14:15:01.919Z,1.90
2024-05-09T14:18:05.558Z,1.80
2024-05-09T14:21:09.095Z,1.90
2024-05-09T14:24:12.300Z,1.90
2024-05-09T14:27:15.385Z,1.75
2024-05-09T14:30:26.397Z,2.80
2024-05-09T14:33:37.620Z,1.50
2024-05-09T14:36:41.318Z,1.90
2024-05-09T14:39:44.446Z,1.90
2024-05-09T14:42:47.672Z,1.95
2024-05-09T14:45:50.997Z,2.10
2024-05-09T14:48:54.469Z,1.60
2024-05-09T14:51:57.681Z,2.15
2024-05-09T14:55:01.283Z,1.77
2024-05-09T14:58:07.579Z,1.85
2024-05-09T15:01:10.897Z,1.97
2024-05-09T15:04:14.132Z,1.45
2024-05-09T15:07:17.506Z,4.00
2024-05-09T15:10:27.315Z,2.10
2024-05-09T15:13:37.273Z,1.75
2024-05-09T15:16:40.452Z,2.17
2024-05-09T15:19:45.424Z,2.15
2024-05-09T15:22:49.092Z,1.77
2024-05-09T15:26:29.782Z,1.98
2024-05-09T15:30:10.846Z,1.73
2024-05-09T15:33:33.196Z,1.80
2024-05-09T15:36:36.522Z,1.70
2024-05-09T15:39:40.128Z,1.85
2024-05-09T16:44:42.708Z,1.90
2024-05-09T17:48:50.842Z,1.50
2024-05-09T18:51:27.039Z,2.25
2024-05-09T18:54:49.010Z,1.85
2024-05-09T19:53:50.771Z,2.87
2024-05-09T20:59:32.266Z,2.10
2024-05-09T22:04:51.054Z,2.20
2024-05-09T23:11:32.480Z,2.10
2024-05-09T23:14:53.966Z,2.53
